Time;durP1;ratioP1;P1;durP2;ratioP2;P2;SDS_P1;SDS_P2;PMS_P1;PMS_P2;Temp;Humidity;BMP_temperature;BMP_pressure;BME280_temperature;BME280_humidity;BME280_pressure;Samples;Min_cycle;Max_cycle;Signal;HPM_P1;HPM_P2
2021/01/24 00:00:26;;;;;;;33.88;19.88;;;3.30;94.70;;;;;;4970468;28;20433;-93
2021/01/24 00:02:51;;;;;;;38.70;22.88;;;3.30;94.70;;;;;;4961297;28;20033;-92
2021/01/24 00:05:17;;;;;;;38.85;21.60;;;3.30;94.70;;;;;;4970227;28;20035;-94
2021/01/24 00:07:42;;;;;;;39.90;23.95;;;3.30;94.70;;;;;;4969686;28;20038;-93
2021/01/24 00:10:08;;;;;;;39.70;21.52;;;3.30;94.70;;;;;;5049215;28;20074;-92
2021/01/24 00:12:34;;;;;;;43.95;23.38;;;3.20;94.60;;;;;;4978631;28;20027;-92
2021/01/24 00:15:00;;;;;;;40.65;22.33;;;3.20;94.60;;;;;;4971173;28;20122;-93
2021/01/24 00:17:25;;;;;;;40.25;22.73;;;3.20;94.60;;;;;;4969864;28;20104;-92
2021/01/24 00:19:51;;;;;;;41.17;22.00;;;3.10;94.60;;;;;;4976574;28;20099;-95
2021/01/24 00:22:16;;;;;;;38.33;20.15;;;3.10;94.60;;;;;;4979792;28;20054;-94
2021/01/24 00:24:42;;;;;;;32.20;15.70;;;3.10;94.60;;;;;;4974349;28;20042;-94
2021/01/24 00:27:07;;;;;;;23.90;13.63;;;3.10;94.60;;;;;;4979195;28;20132;-94
2021/01/24 00:29:33;;;;;;;21.77;12.63;;;3.00;94.50;;;;;;4975080;28;20057;-93
2021/01/24 00:31:59;;;;;;;24.80;11.10;;;3.00;94.50;;;;;;4971848;28;20542;-93
2021/01/24 00:34:24;;;;;;;18.50;9.98;;;2.90;94.50;;;;;;4972947;28;20027;-93
2021/01/24 00:36:50;;;;;;;20.58;8.57;;;2.90;94.50;;;;;;4974733;28;20491;-95
2021/01/24 00:39:15;;;;;;;17.30;8.00;;;2.80;94.40;;;;;;4975171;28;20031;-95
2021/01/24 00:41:41;;;;;;;15.63;7.53;;;2.70;94.40;;;;;;4978189;28;20065;-96
2021/01/24 00:44:07;;;;;;;12.88;6.43;;;2.60;94.50;;;;;;4978379;28;20035;-95
2021/01/24 00:46:33;;;;;;;13.85;6.35;;;2.50;94.50;;;;;;4985687;28;20034;-95
2021/01/24 00:48:59;;;;;;;20.52;6.03;;;2.50;94.60;;;;;;4984871;28;20019;-95
2021/01/24 00:51:24;;;;;;;11.60;5.38;;;2.40;94.70;;;;;;4982464;28;20121;-96
2021/01/24 00:53:52;;;;;;;10.93;5.28;;;2.40;94.70;;;;;;4982203;28;20015;-96
2021/01/24 00:56:18;;;;;;;11.02;5.18;;;2.30;94.70;;;;;;4999780;28;20041;-96
2021/01/24 00:58:43;;;;;;;13.38;5.75;;;2.30;94.80;;;;;;5033622;28;20023;-96
2021/01/24 01:01:16;;;;;;;12.65;4.93;;;2.30;94.90;;;;;;4985653;28;20039;-96
2021/01/24 01:03:41;;;;;;;11.32;4.70;;;2.20;94.90;;;;;;4986109;28;20030;-95
2021/01/24 01:06:08;;;;;;;15.27;5.82;;;2.20;95.00;;;;;;4981853;28;20035;-96
2021/01/24 01:08:33;;;;;;;13.30;5.60;;;2.20;95.00;;;;;;4982322;28;20031;-94
2021/01/24 01:10:59;;;;;;;11.02;5.03;;;2.20;95.10;;;;;;4984579;28;20034;-95
2021/01/24 01:13:24;;;;;;;17.17;6.13;;;2.20;95.10;;;;;;5043787;28;20024;-95
2021/01/24 01:15:50;;;;;;;16.38;6.68;;;2.20;95.10;;;;;;4983994;28;20047;-95
2021/01/24 01:18:17;;;;;;;14.93;5.57;;;2.10;95.10;;;;;;5011968;28;20045;-95
2021/01/24 01:20:43;;;;;;;10.73;5.55;;;2.10;95.10;;;;;;4998548;28;20047;-96
2021/01/24 01:23:09;;;;;;;14.75;5.70;;;2.20;95.20;;;;;;5002825;28;20067;-96
2021/01/24 01:25:35;;;;;;;20.20;6.65;;;2.20;95.20;;;;;;4983782;28;20046;-96
2021/01/24 01:28:00;;;;;;;11.73;5.85;;;2.20;95.20;;;;;;4973052;28;20042;-95
2021/01/24 01:30:26;;;;;;;10.38;5.32;;;2.20;95.20;;;;;;4974760;28;20042;-96
2021/01/24 01:32:54;;;;;;;13.25;5.78;;;2.20;95.20;;;;;;4992310;28;20033;-96
2021/01/24 01:35:20;;;;;;;13.88;5.30;;;2.20;95.20;;;;;;4980029;28;20103;-95
2021/01/24 01:37:46;;;;;;;12.10;5.18;;;2.20;95.20;;;;;;4986391;28;20054;-96
2021/01/24 01:40:23;;;;;;;17.65;6.25;;;2.20;95.20;;;;;;5009087;28;20010;-96
2021/01/24 01:42:52;;;;;;;10.25;5.03;;;2.20;95.20;;;;;;4995517;28;20498;-96
2021/01/24 01:45:18;;;;;;;9.63;4.32;;;2.10;95.20;;;;;;4991292;28;20088;-95
2021/01/24 01:47:44;;;;;;;9.32;4.13;;;2.10;95.20;;;;;;4978873;28;20029;-95
2021/01/24 01:50:11;;;;;;;11.13;4.15;;;2.10;95.20;;;;;;4986191;28;20049;-95
2021/01/24 01:52:37;;;;;;;10.68;4.50;;;2.10;95.30;;;;;;4976464;28;20027;-95
2021/01/24 01:55:03;;;;;;;11.45;4.65;;;2.10;95.20;;;;;;5000603;28;20050;-95
2021/01/24 01:57:29;;;;;;;11.32;4.38;;;2.10;95.30;;;;;;5002768;28;20063;-95
2021/01/24 02:00:10;;;;;;;8.82;4.45;;;2.10;95.30;;;;;;4976938;28;20011;-96
2021/01/24 02:02:54;;;;;;;10.20;4.20;;;2.10;95.30;;;;;;4976751;29;20096;-95
2021/01/24 02:09:40;;;;;;;11.05;4.90;;;2.10;95.60;;;;;;4980580;28;20054;-96
2021/01/24 02:12:35;;;;;;;12.20;5.43;;;2.10;95.30;;;;;;5016169;28;20043;-96
2021/01/24 02:15:50;;;;;;;16.83;5.20;;;2.10;95.30;;;;;;4997100;28;20011;-96
2021/01/24 02:22:35;;;;;;;16.17;7.15;;;2.10;95.30;;;;;;4957879;28;20046;-96
2021/01/24 02:25:52;;;;;;;14.95;6.47;;;2.20;95.40;;;;;;4949555;29;20076;-95
2021/01/24 02:28:43;;;;;;;15.95;7.30;;;2.20;95.40;;;;;;4941171;28;20047;-96
2021/01/24 02:31:09;;;;;;;16.52;7.85;;;2.20;95.40;;;;;;5008326;28;20030;-96
2021/01/24 02:33:37;;;;;;;20.25;7.65;;;2.20;95.40;;;;;;5039010;28;20096;-95
2021/01/24 02:36:05;;;;;;;17.45;7.57;;;2.30;95.40;;;;;;4974172;28;20028;-96
2021/01/24 02:38:31;;;;;;;20.17;7.68;;;2.30;95.40;;;;;;4937886;29;20058;-96
2021/01/24 02:40:58;;;;;;;16.95;8.40;;;2.40;95.50;;;;;;4936584;28;20024;-96
2021/01/24 02:43:24;;;;;;;22.60;7.80;;;2.40;95.50;;;;;;4943576;28;20055;-96
2021/01/24 02:45:51;;;;;;;19.48;8.00;;;2.40;95.50;;;;;;4974419;28;20017;-95
2021/01/24 02:48:18;;;;;;;20.25;8.55;;;2.40;95.50;;;;;;5012815;28;20032;-96
2021/01/24 02:50:45;;;;;;;25.63;8.50;;;2.40;95.50;;;;;;5037216;28;20113;-96
2021/01/24 02:53:13;;;;;;;25.42;9.73;;;2.40;95.50;;;;;;4974016;28;20087;-95
2021/01/24 02:55:39;;;;;;;22.65;9.70;;;2.50;95.50;;;;;;4953912;28;20039;-96
2021/01/24 02:58:05;;;;;;;22.13;9.25;;;2.50;95.50;;;;;;4945830;28;20047;-96
2021/01/24 03:00:31;;;;;;;20.23;9.27;;;2.50;95.50;;;;;;5007933;28;20070;-96
2021/01/24 03:02:57;;;;;;;26.33;9.55;;;2.50;95.50;;;;;;4975645;28;20067;-96
2021/01/24 03:05:24;;;;;;;20.65;8.93;;;2.50;95.50;;;;;;4972063;28;20054;-96
2021/01/24 03:07:50;;;;;;;18.15;8.48;;;2.50;95.50;;;;;;5001349;28;20532;-96
2021/01/24 03:10:17;;;;;;;22.38;10.10;;;2.50;95.50;;;;;;5092838;28;20044;-95
2021/01/24 03:13:08;;;;;;;25.25;10.55;;;2.50;95.50;;;;;;5049431;28;20075;-96
2021/01/24 03:15:34;;;;;;;22.25;10.85;;;2.50;95.40;;;;;;4990666;28;20038;-96
2021/01/24 03:18:02;;;;;;;26.23;12.82;;;2.50;95.50;;;;;;5023456;28;20032;-96
2021/01/24 03:20:34;;;;;;;31.48;13.15;;;2.50;95.50;;;;;;4992355;28;20003;-96
2021/01/24 03:23:02;;;;;;;30.20;14.98;;;2.50;95.50;;;;;;4994445;28;20035;-95
2021/01/24 03:25:28;;;;;;;27.60;13.85;;;2.50;95.50;;;;;;4987903;28;20023;-96
2021/01/24 03:27:54;;;;;;;26.70;14.07;;;2.50;95.50;;;;;;4988293;28;20049;-96
2021/01/24 03:30:20;;;;;;;30.13;14.88;;;2.50;95.60;;;;;;4988716;28;20044;-95
2021/01/24 03:32:46;;;;;;;32.17;15.15;;;2.50;95.60;;;;;;4994151;28;20018;-96
2021/01/24 03:35:12;;;;;;;24.02;13.38;;;2.50;95.60;;;;;;4992376;28;20086;-95
2021/01/24 03:37:38;;;;;;;30.65;14.45;;;2.40;95.60;;;;;;4984168;28;20031;-96
2021/01/24 03:40:07;;;;;;;27.45;13.20;;;2.50;95.60;;;;;;4975127;28;20031;-95
2021/01/24 03:42:33;;;;;;;24.35;12.80;;;2.40;95.60;;;;;;4973493;28;20087;-96
2021/01/24 03:44:59;;;;;;;27.73;11.65;;;2.40;95.60;;;;;;4989231;28;20482;-96
2021/01/24 03:47:26;;;;;;;24.17;11.82;;;2.40;95.60;;;;;;4995230;28;20048;-96
2021/01/24 03:49:51;;;;;;;28.77;12.63;;;2.40;95.60;;;;;;4983711;28;20087;-95
2021/01/24 03:52:17;;;;;;;25.08;11.55;;;2.40;95.60;;;;;;4981544;28;20055;-95
2021/01/24 03:54:43;;;;;;;22.90;10.88;;;2.50;95.70;;;;;;4983717;28;20027;-95
2021/01/24 03:57:08;;;;;;;25.58;11.82;;;2.40;95.70;;;;;;5002071;28;20077;-95
2021/01/24 03:59:34;;;;;;;26.40;12.02;;;2.50;95.70;;;;;;4992728;28;20030;-96
2021/01/24 04:01:59;;;;;;;26.20;11.20;;;2.50;95.70;;;;;;4990275;28;20035;-96
2021/01/24 04:04:25;;;;;;;19.67;10.93;;;2.40;95.60;;;;;;4977717;28;20023;-96
2021/01/24 04:06:50;;;;;;;20.50;9.68;;;2.40;95.60;;;;;;4977871;28;20111;-95
2021/01/24 04:09:16;;;;;;;21.92;11.27;;;2.50;95.70;;;;;;4975576;28;20019;-95
2021/01/24 04:11:41;;;;;;;21.60;9.27;;;2.50;95.70;;;;;;4973295;28;20027;-95
2021/01/24 04:14:08;;;;;;;20.45;10.00;;;2.40;95.60;;;;;;4972869;28;20030;-96
2021/01/24 04:16:33;;;;;;;17.70;8.35;;;2.40;95.70;;;;;;4973245;28;20031;-94
2021/01/24 04:18:59;;;;;;;18.55;9.15;;;2.40;95.70;;;;;;4974658;28;20744;-95
2021/01/24 04:21:24;;;;;;;19.70;9.30;;;2.40;95.70;;;;;;4972858;28;20035;-93
2021/01/24 04:23:50;;;;;;;25.48;8.95;;;2.40;95.70;;;;;;5002257;28;20020;-93
2021/01/24 04:26:15;;;;;;;20.67;10.80;;;2.40;95.70;;;;;;4964818;28;20051;-94
2021/01/24 04:28:41;;;;;;;23.55;9.57;;;2.40;95.70;;;;;;4970996;28;20030;-94
2021/01/24 04:31:07;;;;;;;18.65;8.32;;;2.40;95.70;;;;;;4971006;28;20023;-93
2021/01/24 04:33:32;;;;;;;20.50;9.02;;;2.40;95.70;;;;;;4971015;28;20089;-94
2021/01/24 04:35:58;;;;;;;20.08;9.00;;;2.40;95.70;;;;;;5029452;28;20123;-94
2021/01/24 04:38:23;;;;;;;21.05;9.02;;;2.30;95.70;;;;;;4987413;28;20457;-94
2021/01/24 04:40:49;;;;;;;23.65;9.20;;;2.30;95.70;;;;;;4970930;28;20027;-95
2021/01/24 04:43:15;;;;;;;25.77;9.77;;;2.30;95.70;;;;;;4974459;28;20552;-92
2021/01/24 04:45:41;;;;;;;19.92;8.85;;;2.30;95.70;;;;;;4970974;28;20022;-94
2021/01/24 04:48:09;;;;;;;20.17;8.50;;;2.30;95.70;;;;;;4974938;28;20122;-93
2021/01/24 04:50:36;;;;;;;20.48;9.60;;;2.30;95.70;;;;;;4970600;28;20391;-93
2021/01/24 04:53:01;;;;;;;23.95;10.05;;;2.30;95.70;;;;;;4969323;28;20126;-93
2021/01/24 04:55:27;;;;;;;23.05;10.00;;;2.30;95.70;;;;;;4986555;28;20131;-93
2021/01/24 04:57:53;;;;;;;25.02;8.93;;;2.30;95.80;;;;;;4975915;28;20042;-92
2021/01/24 05:00:19;;;;;;;25.25;9.63;;;2.20;95.80;;;;;;4970670;28;20079;-94
2021/01/24 05:02:45;;;;;;;23.10;9.40;;;2.20;95.80;;;;;;4959837;28;20034;-94
2021/01/24 05:05:11;;;;;;;20.67;10.48;;;2.20;95.80;;;;;;4972524;28;20467;-94
2021/01/24 05:07:37;;;;;;;19.33;8.65;;;2.20;95.80;;;;;;4983811;28;20398;-93
2021/01/24 05:10:04;;;;;;;21.02;9.80;;;2.20;95.80;;;;;;4973903;28;20023;-93
2021/01/24 05:12:29;;;;;;;21.05;10.35;;;2.20;95.80;;;;;;4977933;28;20109;-94
2021/01/24 05:14:58;;;;;;;31.63;10.43;;;2.20;95.80;;;;;;4981236;28;20057;-94
2021/01/24 05:17:24;;;;;;;19.13;8.45;;;2.20;95.90;;;;;;4965773;28;20050;-94
2021/01/24 05:19:50;;;;;;;22.13;8.43;;;2.30;95.90;;;;;;4977634;28;20027;-95
2021/01/24 05:22:16;;;;;;;17.63;8.32;;;2.30;96.00;;;;;;4973714;28;20471;-94
2021/01/24 05:24:42;;;;;;;17.58;8.15;;;2.30;96.00;;;;;;4973941;28;20497;-94
2021/01/24 05:27:12;;;;;;;22.20;8.25;;;2.30;95.90;;;;;;4978924;28;20055;-93
2021/01/24 05:29:41;;;;;;;21.77;9.65;;;2.30;96.00;;;;;;4991304;28;20076;-93
2021/01/24 05:32:07;;;;;;;14.75;6.90;;;2.30;96.00;;;;;;4984257;28;20030;-93
2021/01/24 05:34:33;;;;;;;16.15;7.20;;;2.40;96.00;;;;;;4973296;28;20027;-94
2021/01/24 05:37:00;;;;;;;16.63;7.45;;;2.40;96.00;;;;;;4974110;28;20509;-95
2021/01/24 05:39:28;;;;;;;14.20;6.57;;;2.30;96.30;;;;;;4973168;28;20104;-93
2021/01/24 05:41:55;;;;;;;18.02;7.22;;;2.40;96.00;;;;;;4974867;28;20048;-94
2021/01/24 05:44:22;;;;;;;16.35;6.82;;;2.30;96.10;;;;;;4974496;28;20030;-93
2021/01/24 05:46:48;;;;;;;18.63;8.30;;;2.40;96.10;;;;;;4972987;28;20073;-94
2021/01/24 05:49:28;;;;;;;18.55;7.05;;;2.40;96.10;;;;;;4973566;28;20027;-93
2021/01/24 05:52:01;;;;;;;16.13;6.53;;;2.40;96.10;;;;;;4972916;28;20042;-94
2021/01/24 05:54:40;;;;;;;12.27;6.28;;;2.40;96.10;;;;;;4972789;28;20023;-95
2021/01/24 05:57:06;;;;;;;13.98;6.40;;;2.40;96.00;;;;;;4979955;28;20505;-95
2021/01/24 05:59:48;;;;;;;15.10;5.85;;;2.40;96.00;;;;;;4993564;28;20052;-94
2021/01/24 06:02:15;;;;;;;14.82;5.93;;;2.40;96.00;;;;;;4970728;28;20517;-95
2021/01/24 06:04:42;;;;;;;13.05;5.10;;;2.30;96.00;;;;;;4973543;28;20033;-94
2021/01/24 06:07:07;;;;;;;12.43;4.88;;;2.30;96.10;;;;;;4972307;28;20399;-94
2021/01/24 06:09:33;;;;;;;16.63;5.10;;;2.30;96.10;;;;;;4986305;28;20122;-94
2021/01/24 06:12:01;;;;;;;11.32;4.57;;;2.30;96.00;;;;;;4973195;28;20031;-95
2021/01/24 06:14:27;;;;;;;10.68;4.28;;;2.30;96.10;;;;;;4997917;28;20042;-94
2021/01/24 06:16:53;;;;;;;7.60;2.90;;;2.20;96.00;;;;;;4972692;28;20066;-95
2021/01/24 06:19:23;;;;;;;8.55;3.10;;;2.20;96.00;;;;;;4972255;28;20042;-94
2021/01/24 06:21:53;;;;;;;7.82;2.67;;;2.20;96.00;;;;;;4973191;28;20035;-94
2021/01/24 06:24:28;;;;;;;7.90;2.40;;;2.20;96.00;;;;;;4970220;28;20027;-93
2021/01/24 06:26:58;;;;;;;5.40;2.45;;;2.10;96.00;;;;;;4972187;28;20047;-94
2021/01/24 06:29:29;;;;;;;6.35;1.73;;;2.10;96.10;;;;;;4973460;28;20045;-94
2021/01/24 06:31:55;;;;;;;7.10;1.98;;;2.10;96.10;;;;;;4973143;28;20076;-92
2021/01/24 06:34:38;;;;;;;8.75;1.77;;;2.00;96.10;;;;;;4972232;28;20034;-94
2021/01/24 06:37:08;;;;;;;;;;;2.00;96.10;;;;;;4977523;28;20031;-93
2021/01/24 06:39:49;;;;;;;4.40;1.67;;;1.90;96.10;;;;;;4971028;28;20531;-94
2021/01/24 06:42:34;;;;;;;2.55;1.10;;;1.90;96.10;;;;;;4962674;28;20053;-94
2021/01/24 06:45:00;;;;;;;3.13;1.25;;;1.80;96.10;;;;;;4977271;28;20026;-95
2021/01/24 06:47:39;;;;;;;5.28;1.50;;;1.80;96.10;;;;;;4986450;28;20472;-96
2021/01/24 06:50:34;;;;;;;6.45;2.03;;;1.80;96.10;;;;;;5001477;28;20023;-94
2021/01/24 06:53:11;;;;;;;6.60;1.75;;;1.80;96.10;;;;;;4974527;28;20031;-95
2021/01/24 06:55:38;;;;;;;5.80;1.80;;;1.70;96.20;;;;;;4973747;28;20019;-94
2021/01/24 06:58:30;;;;;;;4.93;2.10;;;1.70;96.20;;;;;;4974992;28;20031;-95
2021/01/24 07:01:25;;;;;;;8.30;2.63;;;1.70;96.20;;;;;;4975738;28;20088;-94
2021/01/24 07:04:29;;;;;;;4.30;1.63;;;1.60;96.20;;;;;;4960619;28;20083;-94
2021/01/24 07:06:59;;;;;;;3.45;1.33;;;1.70;96.20;;;;;;4973614;28;20034;-95
2021/01/24 07:09:27;;;;;;;4.63;1.92;;;1.60;96.20;;;;;;4968540;28;20073;-93
2021/01/24 07:11:59;;;;;;;3.67;1.17;;;1.60;96.20;;;;;;4974282;28;20054;-95
2021/01/24 07:14:37;;;;;;;6.13;2.00;;;1.60;96.30;;;;;;4988188;28;20026;-94
2021/01/24 07:17:07;;;;;;;9.40;2.00;;;1.60;96.30;;;;;;4952854;28;20043;-95
2021/01/24 07:19:37;;;;;;;8.85;1.58;;;1.60;96.30;;;;;;4967740;28;20092;-94
2021/01/24 07:22:04;;;;;;;4.63;1.27;;;1.60;96.30;;;;;;5017971;28;20121;-94
2021/01/24 07:24:30;;;;;;;5.07;1.65;;;1.60;96.30;;;;;;4989772;28;20075;-95
2021/01/24 07:26:56;;;;;;;4.90;1.17;;;1.60;96.40;;;;;;4979668;28;20054;-93
2021/01/24 07:29:22;;;;;;;3.50;0.90;;;1.50;96.30;;;;;;4954584;28;20030;-93
2021/01/24 07:31:49;;;;;;;3.80;0.95;;;1.50;96.20;;;;;;4974407;28;20033;-94
2021/01/24 07:34:22;;;;;;;3.67;1.00;;;1.50;96.20;;;;;;4978580;28;20486;-94
2021/01/24 07:36:48;;;;;;;6.30;1.55;;;1.50;96.30;;;;;;4960078;29;20043;-95
2021/01/24 07:39:14;;;;;;;5.32;1.42;;;1.40;96.30;;;;;;4977168;28;20438;-94
2021/01/24 07:41:39;;;;;;;4.10;1.58;;;1.40;96.30;;;;;;5013571;28;20044;-94
2021/01/24 07:44:06;;;;;;;3.50;1.35;;;1.40;96.40;;;;;;5000067;28;20023;-96
2021/01/24 07:46:31;;;;;;;4.28;1.52;;;1.40;96.30;;;;;;4986427;28;20510;-96
2021/01/24 07:48:57;;;;;;;2.65;0.70;;;1.40;96.30;;;;;;4980575;28;20031;-95
2021/01/24 07:51:23;;;;;;;5.47;0.80;;;1.40;96.40;;;;;;4974433;28;20046;-93
2021/01/24 07:53:48;;;;;;;2.95;1.23;;;1.30;96.40;;;;;;5004873;28;20029;-94
2021/01/24 07:56:17;;;;;;;3.30;0.90;;;1.40;96.40;;;;;;4984408;28;20066;-95
2021/01/24 07:58:43;;;;;;;2.30;0.70;;;1.30;96.40;;;;;;4976042;28;20026;-95
2021/01/24 08:01:11;;;;;;;5.40;1.15;;;1.30;96.40;;;;;;4980418;28;20031;-95
2021/01/24 08:03:38;;;;;;;3.33;1.27;;;1.30;96.70;;;;;;4986195;28;20026;-94
2021/01/24 08:06:11;;;;;;;3.95;1.08;;;1.30;96.40;;;;;;4977031;28;20038;-94
2021/01/24 08:08:42;;;;;;;2.80;0.80;;;1.30;96.40;;;;;;4977733;28;20060;-94
2021/01/24 08:11:08;;;;;;;7.28;1.10;;;1.30;96.40;;;;;;4973475;28;20031;-93
2021/01/24 08:13:36;;;;;;;4.65;0.95;;;1.30;96.40;;;;;;4975894;28;20031;-96
2021/01/24 08:16:26;;;;;;;4.18;1.13;;;1.30;96.40;;;;;;4975815;28;20041;-94
2021/01/24 08:18:55;;;;;;;4.43;1.05;;;1.30;96.40;;;;;;4978126;28;20030;-94
2021/01/24 08:21:25;;;;;;;4.18;0.82;;;1.30;96.40;;;;;;4980822;28;20031;-96
2021/01/24 08:23:53;;;;;;;3.13;0.75;;;1.30;96.50;;;;;;4992805;28;20027;-93
2021/01/24 08:26:21;;;;;;;2.28;0.90;;;1.30;96.50;;;;;;4979725;28;20047;-93
2021/01/24 08:28:50;;;;;;;5.65;0.95;;;1.20;96.40;;;;;;4982791;28;20027;-92
2021/01/24 08:31:20;;;;;;;2.58;0.80;;;1.20;96.40;;;;;;4959951;28;20030;-94
2021/01/24 08:33:48;;;;;;;4.30;1.20;;;1.30;96.50;;;;;;4980553;28;20023;-96
2021/01/24 08:36:21;;;;;;;4.10;1.02;;;1.20;96.50;;;;;;4980854;28;20043;-96
2021/01/24 08:38:48;;;;;;;7.57;1.48;;;1.20;96.50;;;;;;4982266;28;20029;-95
2021/01/24 08:41:15;;;;;;;4.90;1.70;;;1.20;96.50;;;;;;4978869;28;20050;-94
2021/01/24 08:43:54;;;;;;;;;;;;;;;;;;;;;
2021/01/24 08:46:26;;;;;;;6.60;2.55;;;1.30;96.70;;;;;;4992061;28;20118;-95
2021/01/24 08:49:03;;;;;;;7.60;2.55;;;1.30;96.70;;;;;;4978353;28;20027;-95
2021/01/24 08:51:44;;;;;;;5.55;2.15;;;1.50;96.80;;;;;;4987382;28;20061;-94
2021/01/24 08:54:29;;;;;;;6.93;2.53;;;1.40;96.70;;;;;;4980048;28;20031;-95
2021/01/24 08:57:14;;;;;;;9.75;2.47;;;1.50;96.70;;;;;;4987467;28;20119;-96
2021/01/24 08:59:48;;;;;;;9.65;2.83;;;1.60;96.70;;;;;;4988688;28;20026;-94
2021/01/24 09:02:14;;;;;;;7.22;2.90;;;1.50;96.60;;;;;;4978033;28;20031;-93
2021/01/24 09:04:46;;;;;;;10.45;3.42;;;1.50;96.60;;;;;;4977582;28;20031;-94
2021/01/24 09:07:17;;;;;;;6.53;2.83;;;1.50;96.50;;;;;;4973324;28;20034;-92
2021/01/24 09:09:47;;;;;;;9.38;3.20;;;1.50;96.60;;;;;;4992872;28;20034;-94
2021/01/24 09:12:20;;;;;;;8.40;2.80;;;1.50;96.60;;;;;;4975348;28;20042;-94
2021/01/24 09:14:48;;;;;;;7.93;3.60;;;1.50;96.60;;;;;;4975867;28;20023;-93
2021/01/24 09:17:20;;;;;;;9.60;2.90;;;1.50;96.70;;;;;;4977018;28;20533;-94
2021/01/24 09:19:47;;;;;;;12.93;5.15;;;1.60;96.80;;;;;;4975928;28;20031;-95
2021/01/24 09:22:17;;;;;;;11.45;4.10;;;1.60;96.80;;;;;;4973101;28;20035;-94
2021/01/24 09:24:43;;;;;;;10.55;4.30;;;1.70;96.70;;;;;;4973700;28;20063;-93
2021/01/24 09:27:12;;;;;;;9.57;3.95;;;1.70;96.70;;;;;;4972269;28;20606;-93
2021/01/24 09:29:39;;;;;;;9.50;3.42;;;1.80;96.70;;;;;;4976573;28;20056;-94
2021/01/24 09:32:05;;;;;;;9.13;3.88;;;1.80;96.60;;;;;;4978837;28;20022;-95
2021/01/24 09:34:32;;;;;;;12.10;4.93;;;1.90;96.70;;;;;;4974055;28;20093;-94
2021/01/24 09:36:57;;;;;;;8.48;3.30;;;1.90;96.70;;;;;;4973902;28;20092;-94
2021/01/24 09:39:23;;;;;;;10.00;3.10;;;2.00;96.70;;;;;;4975122;28;20023;-93
2021/01/24 09:41:49;;;;;;;10.75;3.38;;;2.10;96.60;;;;;;4974482;28;20023;-93
2021/01/24 09:44:15;;;;;;;6.88;3.17;;;2.20;96.60;;;;;;4973589;28;20027;-93
2021/01/24 09:46:41;;;;;;;8.77;3.30;;;2.30;96.60;;;;;;4976793;28;20150;-95
2021/01/24 09:49:06;;;;;;;8.13;3.35;;;2.30;96.60;;;;;;4981936;28;20114;-93
2021/01/24 09:51:32;;;;;;;7.78;3.55;;;2.40;96.60;;;;;;4973019;28;20037;-93
2021/01/24 09:53:58;;;;;;;8.82;4.10;;;2.60;96.70;;;;;;4971715;28;20027;-94
2021/01/24 09:56:25;;;;;;;9.57;3.33;;;2.70;96.50;;;;;;4976148;28;20034;-94
2021/01/24 09:58:51;;;;;;;6.82;2.80;;;2.70;96.20;;;;;;4972719;28;20031;-95
2021/01/24 10:01:17;;;;;;;7.50;3.05;;;2.70;96.00;;;;;;4972604;28;20445;-93
2021/01/24 10:03:44;;;;;;;8.30;3.65;;;2.70;95.90;;;;;;4972415;28;20027;-93
2021/01/24 10:06:09;;;;;;;6.70;3.10;;;2.70;96.10;;;;;;4984957;28;20033;-95
2021/01/24 10:08:35;;;;;;;9.02;2.97;;;2.70;96.30;;;;;;4965993;28;20038;-93
2021/01/24 10:11:00;;;;;;;6.82;3.60;;;2.80;96.30;;;;;;4973328;28;20026;-93
2021/01/24 10:13:26;;;;;;;5.07;2.13;;;2.90;96.30;;;;;;4991038;28;20024;-93
2021/01/24 10:15:52;;;;;;;5.93;2.45;;;3.00;96.10;;;;;;5030964;28;20022;-93
2021/01/24 10:18:18;;;;;;;6.13;2.35;;;3.00;96.10;;;;;;4976486;28;20038;-93
2021/01/24 10:20:44;;;;;;;3.45;1.65;;;3.10;96.20;;;;;;4990475;28;20019;-94
2021/01/24 10:23:11;;;;;;;4.15;2.10;;;3.20;96.20;;;;;;4969944;28;20039;-92
2021/01/24 10:25:36;;;;;;;5.18;2.30;;;3.30;96.10;;;;;;4972247;28;20053;-92
2021/01/24 10:28:02;;;;;;;5.28;1.98;;;3.40;96.20;;;;;;4972551;28;20113;-92
2021/01/24 10:30:28;;;;;;;3.60;1.80;;;3.50;96.10;;;;;;4972698;28;20019;-93
2021/01/24 10:32:54;;;;;;;4.50;2.40;;;3.60;96.10;;;;;;4972442;28;20042;-92
2021/01/24 10:35:19;;;;;;;10.52;2.03;;;3.70;96.00;;;;;;4967912;28;20054;-92
2021/01/24 10:37:45;;;;;;;5.90;1.27;;;3.80;95.80;;;;;;4969812;28;20037;-93
2021/01/24 10:40:10;;;;;;;5.75;1.40;;;3.80;95.50;;;;;;4985418;28;20021;-93
2021/01/24 10:42:41;;;;;;;7.45;1.80;;;3.70;95.30;;;;;;4972611;28;20031;-93
2021/01/24 10:45:08;;;;;;;3.55;1.30;;;3.70;95.40;;;;;;4973099;28;20019;-93
2021/01/24 10:47:34;;;;;;;6.28;1.15;;;3.70;95.50;;;;;;4972953;28;20529;-93
2021/01/24 10:49:59;;;;;;;5.28;1.48;;;3.70;95.60;;;;;;4972695;28;20034;-92
2021/01/24 10:52:25;;;;;;;3.80;1.35;;;3.80;95.50;;;;;;4972385;28;20034;-92
2021/01/24 10:54:51;;;;;;;4.20;1.50;;;3.90;95.30;;;;;;4968863;28;20093;-93
2021/01/24 10:57:16;;;;;;;6.18;1.80;;;4.00;95.30;;;;;;4971990;28;20043;-93
2021/01/24 10:59:42;;;;;;;7.63;2.05;;;4.00;95.10;;;;;;4972504;28;20026;-93
2021/01/24 11:02:07;;;;;;;10.45;2.25;;;4.10;95.10;;;;;;4972691;28;20084;-92
2021/01/24 11:04:33;;;;;;;9.20;2.58;;;4.10;95.00;;;;;;5054237;28;20031;-93
2021/01/24 11:07:00;;;;;;;6.45;2.00;;;4.20;95.00;;;;;;4972474;28;20030;-94
2021/01/24 11:09:26;;;;;;;6.05;2.55;;;4.20;95.00;;;;;;4974058;28;20019;-92
2021/01/24 11:11:51;;;;;;;5.93;2.00;;;4.20;94.80;;;;;;4971278;28;20068;-94
2021/01/24 11:14:17;;;;;;;8.73;1.70;;;4.20;94.70;;;;;;4971900;28;20459;-91
2021/01/24 11:16:43;;;;;;;5.68;1.85;;;4.20;94.70;;;;;;4973713;28;20027;-92
2021/01/24 11:19:09;;;;;;;6.03;1.30;;;4.20;94.50;;;;;;4973259;28;20581;-93
2021/01/24 11:21:34;;;;;;;6.40;1.70;;;4.20;94.40;;;;;;4970340;28;20057;-92
2021/01/24 11:24:00;;;;;;;6.30;1.88;;;4.20;94.40;;;;;;4967691;28;20031;-91
2021/01/24 11:26:25;;;;;;;10.27;1.90;;;4.20;94.30;;;;;;4970143;28;20050;-91
2021/01/24 11:28:51;;;;;;;5.30;1.40;;;4.20;94.10;;;;;;4971290;28;20576;-91
2021/01/24 11:31:17;;;;;;;5.75;1.65;;;4.20;94.10;;;;;;4971661;28;20031;-91
2021/01/24 11:33:44;;;;;;;8.82;1.92;;;4.30;94.10;;;;;;4970599;28;20023;-92
2021/01/24 11:36:10;;;;;;;5.47;1.67;;;4.30;93.90;;;;;;4969274;28;20043;-91
2021/01/24 11:38:35;;;;;;;9.68;2.75;;;4.30;93.90;;;;;;4983086;28;20027;-91
2021/01/24 11:41:01;;;;;;;8.23;3.10;;;4.30;93.80;;;;;;4971646;28;20035;-91
2021/01/24 11:43:26;;;;;;;10.10;2.72;;;4.40;93.90;;;;;;4971101;28;20023;-90
2021/01/24 11:45:52;;;;;;;7.55;2.83;;;4.50;93.80;;;;;;4971182;28;20394;-91
2021/01/24 11:48:18;;;;;;;6.85;2.42;;;4.50;93.70;;;;;;4970969;28;20414;-91
2021/01/24 11:50:43;;;;;;;10.15;3.45;;;4.60;93.60;;;;;;4974632;28;20065;-92
2021/01/24 11:53:09;;;;;;;9.63;3.00;;;4.60;93.50;;;;;;4974427;28;20043;-92
2021/01/24 11:55:35;;;;;;;7.85;2.65;;;4.60;93.30;;;;;;4968486;28;20019;-91
2021/01/24 11:58:00;;;;;;;12.30;3.78;;;4.60;93.10;;;;;;4971231;28;20039;-92
2021/01/24 12:00:26;;;;;;;10.48;3.58;;;4.70;93.10;;;;;;4959931;28;20387;-90
2021/01/24 12:02:51;;;;;;;10.13;4.03;;;4.70;92.90;;;;;;4973534;28;20030;-91
2021/01/24 12:05:17;;;;;;;8.95;3.25;;;4.70;92.70;;;;;;4973253;28;20514;-92
2021/01/24 12:07:42;;;;;;;9.55;3.50;;;4.70;92.50;;;;;;4954905;28;20035;-90
2021/01/24 12:10:08;;;;;;;12.20;3.50;;;4.80;92.50;;;;;;4961100;28;20023;-92
2021/01/24 12:12:34;;;;;;;9.00;3.67;;;4.90;92.00;;;;;;4976383;28;20035;-91
2021/01/24 12:14:59;;;;;;;7.03;3.30;;;5.00;92.30;;;;;;4981770;28;20080;-90
2021/01/24 12:17:25;;;;;;;5.93;2.38;;;5.10;92.30;;;;;;4993549;28;20033;-92
2021/01/24 12:19:51;;;;;;;9.27;3.42;;;5.20;91.80;;;;;;4981256;28;20104;-93
2021/01/24 12:22:17;;;;;;;10.57;4.22;;;5.30;91.80;;;;;;4975400;28;20028;-93
2021/01/24 12:24:42;;;;;;;8.93;3.03;;;5.30;91.70;;;;;;5025197;28;20024;-92
2021/01/24 12:27:08;;;;;;;8.15;3.58;;;5.40;91.50;;;;;;4980271;28;20138;-90
2021/01/24 12:29:33;;;;;;;13.00;3.35;;;5.50;91.50;;;;;;4982523;28;20034;-91
2021/01/24 12:31:59;;;;;;;11.02;3.28;;;5.50;91.30;;;;;;4977244;28;20042;-92
2021/01/24 12:34:24;;;;;;;8.60;2.45;;;5.50;91.00;;;;;;4985107;28;20038;-91
2021/01/24 12:36:50;;;;;;;7.10;2.83;;;5.60;90.90;;;;;;4972980;28;20050;-92
2021/01/24 12:39:15;;;;;;;7.88;2.92;;;5.60;90.50;;;;;;4972955;28;20133;-91
2021/01/24 12:41:41;;;;;;;7.72;2.75;;;5.70;90.50;;;;;;4990020;28;20030;-92
2021/01/24 12:44:06;;;;;;;10.18;3.30;;;5.70;90.40;;;;;;4969633;28;20402;-92
2021/01/24 12:46:32;;;;;;;8.63;2.90;;;5.70;89.80;;;;;;4975065;28;20050;-93
2021/01/24 12:48:57;;;;;;;11.32;4.28;;;5.80;89.90;;;;;;4972921;28;20450;-95
2021/01/24 12:51:23;;;;;;;8.85;2.95;;;5.90;89.40;;;;;;4972969;28;20474;-93
2021/01/24 12:53:48;;;;;;;5.75;2.90;;;6.00;89.30;;;;;;4969285;28;20032;-94
2021/01/24 12:56:14;;;;;;;10.07;3.20;;;6.00;89.50;;;;;;4982714;28;20042;-94
2021/01/24 12:58:39;;;;;;;10.70;3.08;;;6.00;88.50;;;;;;4976793;28;20031;-86
2021/01/24 13:01:05;;;;;;;11.52;2.45;;;6.00;88.80;;;;;;4976519;28;20545;-93
2021/01/24 13:03:30;;;;;;;8.93;3.13;;;5.90;88.60;;;;;;4973288;28;20031;-93